sensor_id;sensor_type;location;lat;lon;timestamp;P1;durP1;ratioP1;P2;durP2;ratioP2
52450;SDS011;38366;53.176;6.540;2022-11-20T00:02:22;15.17;;;9.27;;
52450;SDS011;38366;53.176;6.540;2022-11-20T00:04:48;17.08;;;9.45;;
52450;SDS011;38366;53.176;6.540;2022-11-20T00:07:14;14.60;;;8.23;;
52450;SDS011;38366;53.176;6.540;2022-11-20T00:09:39;14.67;;;8.23;;
52450;SDS011;38366;53.176;6.540;2022-11-20T00:12:05;13.67;;;7.60;;
52450;SDS011;38366;53.176;6.540;2022-11-20T00:14:31;15.03;;;8.30;;
52450;SDS011;38366;53.176;6.540;2022-11-20T00:16:56;14.32;;;7.85;;
52450;SDS011;38366;53.176;6.540;2022-11-20T00:19:22;15.07;;;8.07;;
52450;SDS011;38366;53.176;6.540;2022-11-20T00:21:48;15.57;;;8.30;;
52450;SDS011;38366;53.176;6.540;2022-11-20T00:24:16;15.30;;;8.77;;
52450;SDS011;38366;53.176;6.540;2022-11-20T00:26:42;15.13;;;8.40;;
52450;SDS011;38366;53.176;6.540;2022-11-20T00:29:08;14.20;;;7.93;;
52450;SDS011;38366;53.176;6.540;2022-11-20T00:31:35;16.02;;;8.38;;
52450;SDS011;38366;53.176;6.540;2022-11-20T00:34:00;14.80;;;8.90;;
52450;SDS011;38366;53.176;6.540;2022-11-20T00:36:27;17.57;;;9.27;;
52450;SDS011;38366;53.176;6.540;2022-11-20T00:38:54;17.67;;;10.13;;
52450;SDS011;38366;53.176;6.540;2022-11-20T00:41:24;18.98;;;9.55;;
52450;SDS011;38366;53.176;6.540;2022-11-20T00:43:52;17.67;;;9.73;;
52450;SDS011;38366;53.176;6.540;2022-11-20T00:46:19;16.88;;;9.57;;
52450;SDS011;38366;53.176;6.540;2022-11-20T00:48:47;18.98;;;9.82;;
52450;SDS011;38366;53.176;6.540;2022-11-20T00:51:17;17.75;;;9.98;;
52450;SDS011;38366;53.176;6.540;2022-11-20T00:53:45;18.20;;;10.00;;
52450;SDS011;38366;53.176;6.540;2022-11-20T00:56:11;16.98;;;9.95;;
52450;SDS011;38366;53.176;6.540;2022-11-20T00:58:39;17.00;;;9.90;;
52450;SDS011;38366;53.176;6.540;2022-11-20T01:01:17;17.75;;;9.73;;
52450;SDS011;38366;53.176;6.540;2022-11-20T01:03:50;19.48;;;10.48;;
52450;SDS011;38366;53.176;6.540;2022-11-20T01:06:18;17.52;;;9.52;;
52450;SDS011;38366;53.176;6.540;2022-11-20T01:08:50;19.73;;;10.77;;
52450;SDS011;38366;53.176;6.540;2022-11-20T01:11:19;20.67;;;10.98;;
52450;SDS011;38366;53.176;6.540;2022-11-20T01:13:47;20.20;;;10.77;;
52450;SDS011;38366;53.176;6.540;2022-11-20T01:16:17;18.50;;;10.57;;
52450;SDS011;38366;53.176;6.540;2022-11-20T01:18:55;17.73;;;10.35;;
52450;SDS011;38366;53.176;6.540;2022-11-20T01:21:23;22.00;;;10.77;;
52450;SDS011;38366;53.176;6.540;2022-11-20T01:23:54;21.30;;;10.95;;
52450;SDS011;38366;53.176;6.540;2022-11-20T01:26:21;19.33;;;10.23;;
52450;SDS011;38366;53.176;6.540;2022-11-20T01:28:54;17.80;;;10.45;;
52450;SDS011;38366;53.176;6.540;2022-11-20T01:31:25;17.75;;;9.68;;
52450;SDS011;38366;53.176;6.540;2022-11-20T01:33:55;20.25;;;10.75;;
52450;SDS011;38366;53.176;6.540;2022-11-20T01:36:24;19.40;;;11.13;;
52450;SDS011;38366;53.176;6.540;2022-11-20T01:38:54;18.73;;;11.52;;
52450;SDS011;38366;53.176;6.540;2022-11-20T01:41:22;20.98;;;11.13;;
52450;SDS011;38366;53.176;6.540;2022-11-20T01:44:08;21.83;;;11.45;;
52450;SDS011;38366;53.176;6.540;2022-11-20T01:46:37;20.38;;;11.20;;
52450;SDS011;38366;53.176;6.540;2022-11-20T01:49:10;21.42;;;11.55;;
52450;SDS011;38366;53.176;6.540;2022-11-20T01:51:52;19.60;;;11.43;;
52450;SDS011;38366;53.176;6.540;2022-11-20T01:54:29;20.55;;;11.30;;
52450;SDS011;38366;53.176;6.540;2022-11-20T01:57:00;20.73;;;11.50;;
52450;SDS011;38366;53.176;6.540;2022-11-20T01:59:26;19.95;;;11.52;;
52450;SDS011;38366;53.176;6.540;2022-11-20T02:01:54;22.33;;;11.82;;
52450;SDS011;38366;53.176;6.540;2022-11-20T02:04:20;21.55;;;12.20;;
52450;SDS011;38366;53.176;6.540;2022-11-20T02:06:48;21.00;;;12.18;;
52450;SDS011;38366;53.176;6.540;2022-11-20T02:09:21;22.85;;;12.15;;
52450;SDS011;38366;53.176;6.540;2022-11-20T02:11:47;22.23;;;12.07;;
52450;SDS011;38366;53.176;6.540;2022-11-20T02:14:12;23.13;;;12.15;;
52450;SDS011;38366;53.176;6.540;2022-11-20T02:16:40;21.52;;;12.50;;
52450;SDS011;38366;53.176;6.540;2022-11-20T02:24:31;20.02;;;12.00;;
52450;SDS011;38366;53.176;6.540;2022-11-20T02:26:58;19.75;;;11.35;;
52450;SDS011;38366;53.176;6.540;2022-11-20T02:29:39;19.58;;;11.25;;
52450;SDS011;38366;53.176;6.540;2022-11-20T02:32:06;23.08;;;12.82;;
52450;SDS011;38366;53.176;6.540;2022-11-20T02:34:42;21.17;;;12.05;;
52450;SDS011;38366;53.176;6.540;2022-11-20T02:37:08;19.77;;;12.10;;
52450;SDS011;38366;53.176;6.540;2022-11-20T02:39:33;24.65;;;12.52;;
52450;SDS011;38366;53.176;6.540;2022-11-20T02:42:00;20.67;;;12.10;;
52450;SDS011;38366;53.176;6.540;2022-11-20T02:44:26;20.88;;;11.73;;
52450;SDS011;38366;53.176;6.540;2022-11-20T02:46:51;21.77;;;11.90;;
52450;SDS011;38366;53.176;6.540;2022-11-20T02:49:17;21.27;;;11.17;;
52450;SDS011;38366;53.176;6.540;2022-11-20T02:51:43;19.00;;;10.90;;
52450;SDS011;38366;53.176;6.540;2022-11-20T02:54:08;20.43;;;11.63;;
52450;SDS011;38366;53.176;6.540;2022-11-20T02:56:34;19.17;;;11.10;;
52450;SDS011;38366;53.176;6.540;2022-11-20T02:59:03;19.33;;;10.10;;
52450;SDS011;38366;53.176;6.540;2022-11-20T03:01:29;18.83;;;10.50;;
52450;SDS011;38366;53.176;6.540;2022-11-20T03:03:55;19.90;;;10.63;;
52450;SDS011;38366;53.176;6.540;2022-11-20T03:06:21;20.42;;;10.23;;
52450;SDS011;38366;53.176;6.540;2022-11-20T03:08:46;18.73;;;10.32;;
52450;SDS011;38366;53.176;6.540;2022-11-20T03:11:12;19.08;;;10.73;;
52450;SDS011;38366;53.176;6.540;2022-11-20T03:13:38;16.58;;;9.10;;
52450;SDS011;38366;53.176;6.540;2022-11-20T03:16:05;17.90;;;9.90;;
52450;SDS011;38366;53.176;6.540;2022-11-20T03:18:51;18.30;;;9.23;;
52450;SDS011;38366;53.176;6.540;2022-11-20T03:21:18;18.27;;;9.52;;
52450;SDS011;38366;53.176;6.540;2022-11-20T03:23:44;17.13;;;9.50;;
52450;SDS011;38366;53.176;6.540;2022-11-20T03:26:11;17.15;;;9.48;;
52450;SDS011;38366;53.176;6.540;2022-11-20T03:28:48;18.05;;;9.02;;
52450;SDS011;38366;53.176;6.540;2022-11-20T03:31:16;15.63;;;9.27;;
52450;SDS011;38366;53.176;6.540;2022-11-20T03:33:44;16.65;;;9.20;;
52450;SDS011;38366;53.176;6.540;2022-11-20T03:36:11;17.50;;;9.13;;
52450;SDS011;38366;53.176;6.540;2022-11-20T03:38:38;15.02;;;8.43;;
52450;SDS011;38366;53.176;6.540;2022-11-20T03:41:06;17.42;;;9.75;;
52450;SDS011;38366;53.176;6.540;2022-11-20T03:43:34;16.50;;;9.02;;
52450;SDS011;38366;53.176;6.540;2022-11-20T03:46:00;17.00;;;9.38;;
52450;SDS011;38366;53.176;6.540;2022-11-20T03:48:26;16.27;;;9.55;;
52450;SDS011;38366;53.176;6.540;2022-11-20T03:53:31;18.95;;;9.15;;
52450;SDS011;38366;53.176;6.540;2022-11-20T03:55:56;16.13;;;8.77;;
52450;SDS011;38366;53.176;6.540;2022-11-20T03:58:22;15.77;;;9.63;;
52450;SDS011;38366;53.176;6.540;2022-11-20T04:00:48;15.20;;;8.73;;
52450;SDS011;38366;53.176;6.540;2022-11-20T04:03:13;14.10;;;8.23;;
52450;SDS011;38366;53.176;6.540;2022-11-20T04:05:39;16.42;;;8.82;;
52450;SDS011;38366;53.176;6.540;2022-11-20T04:08:05;15.10;;;8.60;;
52450;SDS011;38366;53.176;6.540;2022-11-20T04:10:30;15.43;;;9.00;;
52450;SDS011;38366;53.176;6.540;2022-11-20T04:12:56;15.73;;;9.05;;
52450;SDS011;38366;53.176;6.540;2022-11-20T04:15:22;15.77;;;8.60;;
52450;SDS011;38366;53.176;6.540;2022-11-20T04:17:47;16.27;;;8.60;;
52450;SDS011;38366;53.176;6.540;2022-11-20T04:20:13;13.50;;;7.93;;
52450;SDS011;38366;53.176;6.540;2022-11-20T04:22:39;13.38;;;7.68;;
52450;SDS011;38366;53.176;6.540;2022-11-20T04:25:05;13.07;;;8.32;;
52450;SDS011;38366;53.176;6.540;2022-11-20T04:27:31;15.60;;;7.97;;
52450;SDS011;38366;53.176;6.540;2022-11-20T04:29:56;15.30;;;8.23;;
52450;SDS011;38366;53.176;6.540;2022-11-20T04:32:22;14.77;;;8.10;;
52450;SDS011;38366;53.176;6.540;2022-11-20T04:34:48;16.25;;;7.60;;
52450;SDS011;38366;53.176;6.540;2022-11-20T04:37:14;19.58;;;9.45;;
52450;SDS011;38366;53.176;6.540;2022-11-20T04:39:39;15.53;;;8.60;;
52450;SDS011;38366;53.176;6.540;2022-11-20T04:42:05;16.63;;;8.40;;
52450;SDS011;38366;53.176;6.540;2022-11-20T04:44:49;15.07;;;8.02;;
52450;SDS011;38366;53.176;6.540;2022-11-20T04:47:15;16.17;;;9.23;;
52450;SDS011;38366;53.176;6.540;2022-11-20T04:49:40;15.82;;;8.95;;
52450;SDS011;38366;53.176;6.540;2022-11-20T04:52:06;14.83;;;8.63;;
52450;SDS011;38366;53.176;6.540;2022-11-20T04:54:32;15.90;;;8.60;;
52450;SDS011;38366;53.176;6.540;2022-11-20T04:56:57;17.17;;;8.60;;
52450;SDS011;38366;53.176;6.540;2022-11-20T04:59:23;15.23;;;8.80;;
52450;SDS011;38366;53.176;6.540;2022-11-20T05:01:49;17.67;;;9.30;;
52450;SDS011;38366;53.176;6.540;2022-11-20T05:04:14;14.43;;;7.28;;
52450;SDS011;38366;53.176;6.540;2022-11-20T05:06:40;18.03;;;8.60;;
52450;SDS011;38366;53.176;6.540;2022-11-20T05:09:06;17.73;;;8.70;;
52450;SDS011;38366;53.176;6.540;2022-11-20T05:11:31;14.50;;;8.60;;
52450;SDS011;38366;53.176;6.540;2022-11-20T05:13:58;18.40;;;8.40;;
52450;SDS011;38366;53.176;6.540;2022-11-20T05:16:25;15.13;;;8.30;;
52450;SDS011;38366;53.176;6.540;2022-11-20T05:18:51;14.45;;;8.00;;
52450;SDS011;38366;53.176;6.540;2022-11-20T05:21:18;15.60;;;8.20;;
52450;SDS011;38366;53.176;6.540;2022-11-20T05:23:44;16.20;;;8.85;;
52450;SDS011;38366;53.176;6.540;2022-11-20T05:26:20;16.27;;;9.05;;
52450;SDS011;38366;53.176;6.540;2022-11-20T05:28:49;15.23;;;8.82;;
52450;SDS011;38366;53.176;6.540;2022-11-20T05:31:17;15.88;;;7.88;;
52450;SDS011;38366;53.176;6.540;2022-11-20T05:33:44;15.77;;;8.15;;
52450;SDS011;38366;53.176;6.540;2022-11-20T05:36:11;19.38;;;8.88;;
52450;SDS011;38366;53.176;6.540;2022-11-20T05:38:38;16.65;;;8.95;;
52450;SDS011;38366;53.176;6.540;2022-11-20T05:43:41;15.10;;;7.97;;
52450;SDS011;38366;53.176;6.540;2022-11-20T05:46:08;16.75;;;7.85;;
52450;SDS011;38366;53.176;6.540;2022-11-20T05:48:36;14.38;;;7.88;;
52450;SDS011;38366;53.176;6.540;2022-11-20T05:51:03;13.68;;;7.40;;
52450;SDS011;38366;53.176;6.540;2022-11-20T05:53:31;14.30;;;7.90;;
52450;SDS011;38366;53.176;6.540;2022-11-20T05:58:23;14.97;;;8.30;;
52450;SDS011;38366;53.176;6.540;2022-11-20T06:00:49;14.38;;;8.07;;
52450;SDS011;38366;53.176;6.540;2022-11-20T06:03:15;14.48;;;8.35;;
52450;SDS011;38366;53.176;6.540;2022-11-20T06:05:40;14.67;;;7.50;;
52450;SDS011;38366;53.176;6.540;2022-11-20T06:08:06;13.37;;;7.67;;
52450;SDS011;38366;53.176;6.540;2022-11-20T06:10:32;14.40;;;7.67;;
52450;SDS011;38366;53.176;6.540;2022-11-20T06:12:57;15.07;;;7.97;;
52450;SDS011;38366;53.176;6.540;2022-11-20T06:15:23;13.65;;;7.82;;
52450;SDS011;38366;53.176;6.540;2022-11-20T06:17:52;14.18;;;8.10;;
52450;SDS011;38366;53.176;6.540;2022-11-20T06:20:18;14.20;;;7.68;;
52450;SDS011;38366;53.176;6.540;2022-11-20T06:22:44;15.52;;;8.30;;
52450;SDS011;38366;53.176;6.540;2022-11-20T06:25:10;14.05;;;7.80;;
52450;SDS011;38366;53.176;6.540;2022-11-20T06:27:36;13.43;;;8.10;;
52450;SDS011;38366;53.176;6.540;2022-11-20T06:30:02;14.47;;;8.20;;
52450;SDS011;38366;53.176;6.540;2022-11-20T06:32:28;13.90;;;7.50;;
52450;SDS011;38366;53.176;6.540;2022-11-20T06:34:53;14.13;;;7.20;;
52450;SDS011;38366;53.176;6.540;2022-11-20T06:37:19;12.60;;;6.87;;
52450;SDS011;38366;53.176;6.540;2022-11-20T06:39:45;14.95;;;7.47;;
52450;SDS011;38366;53.176;6.540;2022-11-20T06:42:10;15.83;;;8.23;;
52450;SDS011;38366;53.176;6.540;2022-11-20T06:44:36;11.13;;;6.83;;
52450;SDS011;38366;53.176;6.540;2022-11-20T06:47:02;13.30;;;7.10;;
52450;SDS011;38366;53.176;6.540;2022-11-20T06:49:27;12.33;;;7.30;;
52450;SDS011;38366;53.176;6.540;2022-11-20T06:51:53;13.20;;;7.30;;
52450;SDS011;38366;53.176;6.540;2022-11-20T06:54:19;12.70;;;7.37;;
52450;SDS011;38366;53.176;6.540;2022-11-20T06:56:47;14.30;;;7.83;;
52450;SDS011;38366;53.176;6.540;2022-11-20T06:59:13;12.93;;;6.97;;
52450;SDS011;38366;53.176;6.540;2022-11-20T07:01:39;12.35;;;6.78;;
52450;SDS011;38366;53.176;6.540;2022-11-20T07:04:05;14.40;;;7.53;;
52450;SDS011;38366;53.176;6.540;2022-11-20T07:06:31;15.63;;;7.63;;
52450;SDS011;38366;53.176;6.540;2022-11-20T07:08:56;12.00;;;7.05;;
52450;SDS011;38366;53.176;6.540;2022-11-20T07:11:22;15.10;;;7.10;;
52450;SDS011;38366;53.176;6.540;2022-11-20T07:13:48;13.30;;;7.20;;
52450;SDS011;38366;53.176;6.540;2022-11-20T07:16:14;12.40;;;6.90;;
52450;SDS011;38366;53.176;6.540;2022-11-20T07:18:40;13.00;;;7.57;;
52450;SDS011;38366;53.176;6.540;2022-11-20T07:21:07;13.80;;;7.18;;
52450;SDS011;38366;53.176;6.540;2022-11-20T07:23:34;13.43;;;6.90;;
52450;SDS011;38366;53.176;6.540;2022-11-20T07:26:04;13.57;;;6.75;;
52450;SDS011;38366;53.176;6.540;2022-11-20T07:28:30;12.85;;;6.78;;
52450;SDS011;38366;53.176;6.540;2022-11-20T07:30:56;14.18;;;7.03;;
52450;SDS011;38366;53.176;6.540;2022-11-20T07:33:22;13.00;;;7.03;;
52450;SDS011;38366;53.176;6.540;2022-11-20T07:35:48;13.17;;;7.07;;
52450;SDS011;38366;53.176;6.540;2022-11-20T07:38:13;13.50;;;7.30;;
52450;SDS011;38366;53.176;6.540;2022-11-20T07:40:39;14.03;;;7.77;;
52450;SDS011;38366;53.176;6.540;2022-11-20T07:43:04;12.63;;;7.33;;
52450;SDS011;38366;53.176;6.540;2022-11-20T07:45:30;13.80;;;7.57;;
52450;SDS011;38366;53.176;6.540;2022-11-20T07:47:56;12.70;;;7.17;;
52450;SDS011;38366;53.176;6.540;2022-11-20T07:50:22;13.43;;;7.90;;
52450;SDS011;38366;53.176;6.540;2022-11-20T07:52:47;16.20;;;7.45;;
52450;SDS011;38366;53.176;6.540;2022-11-20T07:55:13;11.63;;;6.88;;
52450;SDS011;38366;53.176;6.540;2022-11-20T07:57:40;11.23;;;6.75;;
52450;SDS011;38366;53.176;6.540;2022-11-20T08:00:07;14.13;;;7.57;;
52450;SDS011;38366;53.176;6.540;2022-11-20T08:02:36;12.88;;;7.50;;
52450;SDS011;38366;53.176;6.540;2022-11-20T08:05:04;12.23;;;7.15;;
52450;SDS011;38366;53.176;6.540;2022-11-20T08:07:34;13.40;;;7.20;;
52450;SDS011;38366;53.176;6.540;2022-11-20T08:10:01;12.38;;;6.75;;
52450;SDS011;38366;53.176;6.540;2022-11-20T08:12:27;14.00;;;7.93;;
52450;SDS011;38366;53.176;6.540;2022-11-20T08:15:11;11.55;;;7.20;;
52450;SDS011;38366;53.176;6.540;2022-11-20T08:17:37;14.35;;;7.00;;
52450;SDS011;38366;53.176;6.540;2022-11-20T08:20:03;13.63;;;7.75;;
52450;SDS011;38366;53.176;6.540;2022-11-20T08:22:29;14.18;;;7.78;;
52450;SDS011;38366;53.176;6.540;2022-11-20T08:24:54;11.70;;;7.30;;
52450;SDS011;38366;53.176;6.540;2022-11-20T08:27:20;12.68;;;6.85;;
52450;SDS011;38366;53.176;6.540;2022-11-20T08:29:46;11.18;;;6.65;;
52450;SDS011;38366;53.176;6.540;2022-11-20T08:32:12;13.90;;;7.03;;
52450;SDS011;38366;53.176;6.540;2022-11-20T08:34:37;11.52;;;6.65;;
52450;SDS011;38366;53.176;6.540;2022-11-20T08:37:03;11.63;;;5.93;;
52450;SDS011;38366;53.176;6.540;2022-11-20T08:39:29;12.20;;;7.30;;
52450;SDS011;38366;53.176;6.540;2022-11-20T08:41:54;11.47;;;6.67;;
52450;SDS011;38366;53.176;6.540;2022-11-20T08:44:20;10.87;;;6.27;;
52450;SDS011;38366;53.176;6.540;2022-11-20T08:46:46;12.77;;;7.33;;
52450;SDS011;38366;53.176;6.540;2022-11-20T08:49:12;10.55;;;6.38;;
52450;SDS011;38366;53.176;6.540;2022-11-20T08:51:39;12.15;;;6.10;;
52450;SDS011;38366;53.176;6.540;2022-11-20T08:54:05;11.45;;;6.57;;
52450;SDS011;38366;53.176;6.540;2022-11-20T08:56:32;11.32;;;6.93;;
52450;SDS011;38366;53.176;6.540;2022-11-20T08:58:58;13.02;;;6.60;;
52450;SDS011;38366;53.176;6.540;2022-11-20T09:01:26;12.15;;;6.63;;
52450;SDS011;38366;53.176;6.540;2022-11-20T09:03:57;13.80;;;6.65;;
52450;SDS011;38366;53.176;6.540;2022-11-20T09:06:24;13.02;;;6.40;;
52450;SDS011;38366;53.176;6.540;2022-11-20T09:08:53;11.25;;;6.20;;
52450;SDS011;38366;53.176;6.540;2022-11-20T09:11:19;10.95;;;6.25;;
52450;SDS011;38366;53.176;6.540;2022-11-20T09:13:45;11.90;;;6.43;;
52450;SDS011;38366;53.176;6.540;2022-11-20T09:16:11;11.30;;;6.30;;
52450;SDS011;38366;53.176;6.540;2022-11-20T09:18:37;11.37;;;6.40;;
52450;SDS011;38366;53.176;6.540;2022-11-20T09:23:35;13.82;;;6.38;;
52450;SDS011;38366;53.176;6.540;2022-11-20T09:26:03;12.73;;;6.95;;
52450;SDS011;38366;53.176;6.540;2022-11-20T09:28:34;10.80;;;6.25;;
52450;SDS011;38366;53.176;6.540;2022-11-20T09:31:00;13.35;;;6.90;;
52450;SDS011;38366;53.176;6.540;2022-11-20T09:33:29;13.43;;;6.60;;
52450;SDS011;38366;53.176;6.540;2022-11-20T09:35:55;10.52;;;6.47;;
52450;SDS011;38366;53.176;6.540;2022-11-20T09:38:20;9.82;;;5.82;;
52450;SDS011;38366;53.176;6.540;2022-11-20T09:40:52;9.70;;;6.27;;
52450;SDS011;38366;53.176;6.540;2022-11-20T09:49:15;10.65;;;6.03;;
52450;SDS011;38366;53.176;6.540;2022-11-20T09:54:40;10.38;;;6.00;;
52450;SDS011;38366;53.176;6.540;2022-11-20T10:02:15;11.43;;;6.80;;
52450;SDS011;38366;53.176;6.540;2022-11-20T10:04:43;10.50;;;5.63;;
52450;SDS011;38366;53.176;6.540;2022-11-20T10:07:15;9.55;;;5.28;;
52450;SDS011;38366;53.176;6.540;2022-11-20T10:09:55;9.50;;;5.65;;
52450;SDS011;38366;53.176;6.540;2022-11-20T10:15:28;8.63;;;5.03;;
52450;SDS011;38366;53.176;6.540;2022-11-20T10:21:27;10.27;;;5.65;;
52450;SDS011;38366;53.176;6.540;2022-11-20T10:24:38;10.68;;;5.68;;
52450;SDS011;38366;53.176;6.540;2022-11-20T10:30:01;10.57;;;5.57;;
52450;SDS011;38366;53.176;6.540;2022-11-20T10:32:39;11.05;;;6.00;;
52450;SDS011;38366;53.176;6.540;2022-11-20T10:35:14;9.02;;;5.50;;
52450;SDS011;38366;53.176;6.540;2022-11-20T10:37:44;10.00;;;5.72;;
52450;SDS011;38366;53.176;6.540;2022-11-20T10:43:24;11.38;;;5.72;;
52450;SDS011;38366;53.176;6.540;2022-11-20T10:46:01;11.30;;;6.18;;
52450;SDS011;38366;53.176;6.540;2022-11-20T10:48:33;10.88;;;5.80;;
52450;SDS011;38366;53.176;6.540;2022-11-20T10:54:12;10.45;;;5.68;;
52450;SDS011;38366;53.176;6.540;2022-11-20T10:57:00;9.48;;;5.70;;
52450;SDS011;38366;53.176;6.540;2022-11-20T10:59:38;10.93;;;5.85;;
52450;SDS011;38366;53.176;6.540;2022-11-20T11:02:17;9.70;;;5.93;;
52450;SDS011;38366;53.176;6.540;2022-11-20T11:04:52;10.48;;;5.80;;
52450;SDS011;38366;53.176;6.540;2022-11-20T11:09:51;8.50;;;5.47;;
52450;SDS011;38366;53.176;6.540;2022-11-20T11:12:19;11.70;;;5.95;;
52450;SDS011;38366;53.176;6.540;2022-11-20T11:14:47;8.82;;;5.32;;
52450;SDS011;38366;53.176;6.540;2022-11-20T11:17:27;10.55;;;6.25;;
52450;SDS011;38366;53.176;6.540;2022-11-20T11:19:57;8.97;;;5.20;;
52450;SDS011;38366;53.176;6.540;2022-11-20T11:22:30;8.10;;;4.93;;
52450;SDS011;38366;53.176;6.540;2022-11-20T11:24:58;9.15;;;5.50;;
52450;SDS011;38366;53.176;6.540;2022-11-20T11:27:26;8.73;;;5.60;;
52450;SDS011;38366;53.176;6.540;2022-11-20T11:30:01;8.57;;;5.05;;
52450;SDS011;38366;53.176;6.540;2022-11-20T11:32:39;7.63;;;4.70;;
52450;SDS011;38366;53.176;6.540;2022-11-20T11:35:05;7.87;;;5.17;;
52450;SDS011;38366;53.176;6.540;2022-11-20T11:37:43;9.10;;;5.45;;
52450;SDS011;38366;53.176;6.540;2022-11-20T11:40:09;8.20;;;5.05;;
52450;SDS011;38366;53.176;6.540;2022-11-20T11:42:41;10.23;;;5.80;;
52450;SDS011;38366;53.176;6.540;2022-11-20T11:45:14;8.68;;;5.38;;
52450;SDS011;38366;53.176;6.540;2022-11-20T11:52:36;10.37;;;5.60;;
52450;SDS011;38366;53.176;6.540;2022-11-20T12:00:44;10.30;;;5.22;;
52450;SDS011;38366;53.176;6.540;2022-11-20T12:03:39;9.07;;;4.90;;
52450;SDS011;38366;53.176;6.540;2022-11-20T12:06:12;8.45;;;4.93;;
52450;SDS011;38366;53.176;6.540;2022-11-20T12:16:56;6.40;;;3.65;;
52450;SDS011;38366;53.176;6.540;2022-11-20T12:19:22;5.15;;;3.30;;
52450;SDS011;38366;53.176;6.540;2022-11-20T12:21:53;4.68;;;3.22;;
52450;SDS011;38366;53.176;6.540;2022-11-20T12:27:01;6.97;;;3.30;;
52450;SDS011;38366;53.176;6.540;2022-11-20T12:29:54;4.70;;;2.63;;
52450;SDS011;38366;53.176;6.540;2022-11-20T12:43:20;4.75;;;3.03;;
52450;SDS011;38366;53.176;6.540;2022-11-20T12:51:23;5.03;;;3.10;;
52450;SDS011;38366;53.176;6.540;2022-11-20T12:54:19;4.95;;;3.55;;
52450;SDS011;38366;53.176;6.540;2022-11-20T13:07:57;6.03;;;3.97;;
52450;SDS011;38366;53.176;6.540;2022-11-20T13:15:56;6.13;;;3.92;;
52450;SDS011;38366;53.176;6.540;2022-11-20T13:18:44;6.85;;;4.20;;
52450;SDS011;38366;53.176;6.540;2022-11-20T13:21:34;7.10;;;4.25;;
52450;SDS011;38366;53.176;6.540;2022-11-20T13:24:49;6.13;;;3.95;;
52450;SDS011;38366;53.176;6.540;2022-11-20T13:29:40;6.65;;;4.20;;
52450;SDS011;38366;53.176;6.540;2022-11-20T13:34:38;7.18;;;4.15;;
52450;SDS011;38366;53.176;6.540;2022-11-20T13:37:04;6.15;;;4.00;;
52450;SDS011;38366;53.176;6.540;2022-11-20T13:39:31;7.22;;;4.18;;
52450;SDS011;38366;53.176;6.540;2022-11-20T13:42:02;6.75;;;3.90;;
52450;SDS011;38366;53.176;6.540;2022-11-20T13:44:53;6.72;;;4.53;;
52450;SDS011;38366;53.176;6.540;2022-11-20T13:47:21;6.80;;;4.60;;
52450;SDS011;38366;53.176;6.540;2022-11-20T13:49:49;6.78;;;4.25;;
52450;SDS011;38366;53.176;6.540;2022-11-20T13:58:06;7.78;;;4.57;;
52450;SDS011;38366;53.176;6.540;2022-11-20T14:00:58;6.53;;;4.25;;
52450;SDS011;38366;53.176;6.540;2022-11-20T14:03:35;7.32;;;4.53;;
52450;SDS011;38366;53.176;6.540;2022-11-20T14:06:02;8.32;;;4.80;;
52450;SDS011;38366;53.176;6.540;2022-11-20T14:11:20;7.00;;;4.65;;
52450;SDS011;38366;53.176;6.540;2022-11-20T14:16:20;6.40;;;4.47;;
52450;SDS011;38366;53.176;6.540;2022-11-20T14:21:20;8.20;;;5.05;;
52450;SDS011;38366;53.176;6.540;2022-11-20T14:24:03;9.70;;;5.13;;
52450;SDS011;38366;53.176;6.540;2022-11-20T14:26:30;10.38;;;5.63;;
52450;SDS011;38366;53.176;6.540;2022-11-20T14:28:56;8.20;;;4.88;;
52450;SDS011;38366;53.176;6.540;2022-11-20T14:31:23;8.25;;;4.38;;
52450;SDS011;38366;53.176;6.540;2022-11-20T14:33:51;7.78;;;4.40;;
52450;SDS011;38366;53.176;6.540;2022-11-20T14:36:19;7.43;;;4.40;;
52450;SDS011;38366;53.176;6.540;2022-11-20T14:38:47;8.70;;;4.90;;
52450;SDS011;38366;53.176;6.540;2022-11-20T14:41:17;6.80;;;4.05;;
52450;SDS011;38366;53.176;6.540;2022-11-20T14:43:45;7.32;;;4.80;;
52450;SDS011;38366;53.176;6.540;2022-11-20T14:46:12;8.50;;;5.15;;
52450;SDS011;38366;53.176;6.540;2022-11-20T14:48:41;7.68;;;4.50;;
52450;SDS011;38366;53.176;6.540;2022-11-20T14:51:31;8.60;;;5.38;;
52450;SDS011;38366;53.176;6.540;2022-11-20T14:54:09;8.35;;;4.88;;
52450;SDS011;38366;53.176;6.540;2022-11-20T14:56:59;7.72;;;4.72;;
52450;SDS011;38366;53.176;6.540;2022-11-20T14:59:27;9.60;;;4.95;;
52450;SDS011;38366;53.176;6.540;2022-11-20T15:01:58;9.13;;;5.05;;
52450;SDS011;38366;53.176;6.540;2022-11-20T15:04:26;9.23;;;5.13;;
52450;SDS011;38366;53.176;6.540;2022-11-20T15:06:53;9.10;;;5.00;;
52450;SDS011;38366;53.176;6.540;2022-11-20T15:09:21;9.00;;;5.10;;
52450;SDS011;38366;53.176;6.540;2022-11-20T15:11:57;8.90;;;5.25;;
52450;SDS011;38366;53.176;6.540;2022-11-20T15:14:25;8.20;;;4.85;;
52450;SDS011;38366;53.176;6.540;2022-11-20T15:16:53;10.82;;;5.75;;
52450;SDS011;38366;53.176;6.540;2022-11-20T15:19:20;8.75;;;5.82;;
52450;SDS011;38366;53.176;6.540;2022-11-20T15:21:47;8.65;;;5.20;;
52450;SDS011;38366;53.176;6.540;2022-11-20T15:24:13;9.40;;;5.22;;
52450;SDS011;38366;53.176;6.540;2022-11-20T15:26:39;9.73;;;5.70;;
52450;SDS011;38366;53.176;6.540;2022-11-20T15:29:07;11.30;;;5.97;;
52450;SDS011;38366;53.176;6.540;2022-11-20T15:31:36;11.10;;;6.05;;
52450;SDS011;38366;53.176;6.540;2022-11-20T15:36:28;8.50;;;5.57;;
52450;SDS011;38366;53.176;6.540;2022-11-20T15:38:53;8.87;;;5.30;;
52450;SDS011;38366;53.176;6.540;2022-11-20T15:41:19;8.93;;;5.97;;
52450;SDS011;38366;53.176;6.540;2022-11-20T15:43:45;11.43;;;6.97;;
52450;SDS011;38366;53.176;6.540;2022-11-20T15:46:13;11.35;;;6.50;;
52450;SDS011;38366;53.176;6.540;2022-11-20T15:48:44;10.73;;;6.63;;
52450;SDS011;38366;53.176;6.540;2022-11-20T15:53:40;10.57;;;6.13;;
52450;SDS011;38366;53.176;6.540;2022-11-20T15:56:12;9.65;;;6.47;;
52450;SDS011;38366;53.176;6.540;2022-11-20T15:58:39;10.23;;;6.32;;
52450;SDS011;38366;53.176;6.540;2022-11-20T16:01:05;11.75;;;6.50;;
52450;SDS011;38366;53.176;6.540;2022-11-20T16:03:35;10.68;;;6.18;;
52450;SDS011;38366;53.176;6.540;2022-11-20T16:06:01;11.43;;;7.10;;
52450;SDS011;38366;53.176;6.540;2022-11-20T16:08:27;11.23;;;6.40;;
52450;SDS011;38366;53.176;6.540;2022-11-20T16:10:52;12.03;;;6.67;;
52450;SDS011;38366;53.176;6.540;2022-11-20T16:13:18;14.33;;;7.43;;
52450;SDS011;38366;53.176;6.540;2022-11-20T16:16:06;12.50;;;6.93;;
52450;SDS011;38366;53.176;6.540;2022-11-20T16:21:15;11.18;;;6.65;;
52450;SDS011;38366;53.176;6.540;2022-11-20T16:23:41;17.42;;;7.25;;
52450;SDS011;38366;53.176;6.540;2022-11-20T16:26:16;13.23;;;7.55;;
52450;SDS011;38366;53.176;6.540;2022-11-20T16:28:44;11.70;;;6.70;;
52450;SDS011;38366;53.176;6.540;2022-11-20T16:31:11;12.35;;;7.20;;
52450;SDS011;38366;53.176;6.540;2022-11-20T16:33:41;11.98;;;6.85;;
52450;SDS011;38366;53.176;6.540;2022-11-20T16:36:11;10.82;;;6.50;;
52450;SDS011;38366;53.176;6.540;2022-11-20T16:38:38;11.20;;;6.57;;
52450;SDS011;38366;53.176;6.540;2022-11-20T16:41:04;12.43;;;7.07;;
52450;SDS011;38366;53.176;6.540;2022-11-20T16:43:31;14.82;;;7.13;;
52450;SDS011;38366;53.176;6.540;2022-11-20T16:45:56;11.85;;;7.45;;
52450;SDS011;38366;53.176;6.540;2022-11-20T16:48:22;12.38;;;7.25;;
52450;SDS011;38366;53.176;6.540;2022-11-20T16:50:49;12.90;;;7.70;;
52450;SDS011;38366;53.176;6.540;2022-11-20T16:53:20;12.77;;;7.18;;
52450;SDS011;38366;53.176;6.540;2022-11-20T16:55:46;12.20;;;7.22;;